Dubendorf Airport

Airport
ICAO code: 
LSMD
Summary
ICAO Region: 
EUR
Territory: 
Location: 
Dübendorf, Zurich
Serving: 
Dübendorf
Elevation: 
1470 ft
Coordinates: 
Aerial View: 
47° 23' 55.118" N, 8° 38' 53.632" E
Metar
Observation
LSMD 031320Z 18005KT 9999 FEW024 02/M03 Q1015 RMK BLU+
Station
DUBENDORF
Date/Time
2021-12-03 13:20:00
Wind direction
180°
Wind speed
05 kts
Lowest cloud amount
few clouds
Temperature
2°C
Dew point
-3°C
Humidity
69%
QNH
1015 hPa
Weather condition
n/a

Militärflugplatz Dübendorf is a military airfield northeast of Dübendorf in Switzerland, located east of Zürich.

Climatology

Temperate oceanic climate (Köppen climate classification Cfb)

Runways

Designator Length Width Surface Rops
11R/29L 649 30 GRS No/No
11/29 2355 40 ASP No/No
Airport map: 
Aerial View: 

SKYbrary Partners:

Safety knowledge contributed by: